createdAt,value
2018-04-14T00:00:38.858Z,93.41
2018-04-14T00:01:38.851Z,93.7
2018-04-14T00:02:38.843Z,93.6
2018-04-14T00:03:38.839Z,93.79
2018-04-14T00:04:38.578Z,93.6
2018-04-14T00:05:38.826Z,93.6
2018-04-14T00:06:38.820Z,93.79
2018-04-14T00:07:38.810Z,93.79
2018-04-14T00:08:38.810Z,93.51
2018-04-14T00:09:38.808Z,93.79
2018-04-14T00:10:38.789Z,93.79
2018-04-14T00:11:38.531Z,93.41
2018-04-14T00:12:38.780Z,93.88
2018-04-14T00:13:38.770Z,93.79
2018-04-14T00:14:38.765Z,93.6
2018-04-14T00:15:38.756Z,93.51
2018-04-14T00:16:38.756Z,93.88
2018-04-14T00:17:38.743Z,93.41
2018-04-14T00:18:38.738Z,93.6
2018-04-14T00:19:38.747Z,93.6
2018-04-14T00:20:38.724Z,93.6
2018-04-14T00:21:38.463Z,93.51
2018-04-14T00:22:38.717Z,93.31
2018-04-14T00:23:38.706Z,93.6
2018-04-14T00:24:38.697Z,93.51
2018-04-14T00:25:38.688Z,93.41
2018-04-14T00:26:38.687Z,93.22
2018-04-14T00:27:38.677Z,93.88
2018-04-14T00:28:38.670Z,93.41
2018-04-14T00:29:38.680Z,93.41
2018-04-14T00:30:38.406Z,93.41
2018-04-14T00:31:38.647Z,93.51
2018-04-14T00:32:38.644Z,93.88
2018-04-14T00:33:38.635Z,93.51
2018-04-14T00:34:38.637Z,93.6
2018-04-14T00:35:38.670Z,93.41
2018-04-14T00:36:38.364Z,93.7
2018-04-14T00:37:38.355Z,93.51
2018-04-14T00:38:38.353Z,93.79
2018-04-14T00:39:38.371Z,93.6
2018-04-14T00:40:38.588Z,93.88
2018-04-14T00:41:38.584Z,93.79
2018-04-14T00:42:38.585Z,93.7
2018-04-14T00:43:38.582Z,93.79
2018-04-14T00:44:38.565Z,93.88
2018-04-14T00:45:38.552Z,94.07
2018-04-14T00:46:38.291Z,93.98
2018-04-14T00:47:38.537Z,93.88
2018-04-14T00:48:38.532Z,93.79
2018-04-14T00:49:38.524Z,93.79
2018-04-14T00:50:38.521Z,93.98
2018-04-14T00:51:38.518Z,93.88
2018-04-14T00:52:38.505Z,93.88
2018-04-14T00:53:38.496Z,93.79
2018-04-14T00:54:38.504Z,93.98
2018-04-14T00:55:38.485Z,94.07
2018-04-14T00:56:38.225Z,93.7
2018-04-14T00:57:38.470Z,93.88
2018-04-14T00:58:38.466Z,93.7
2018-04-14T00:59:38.455Z,93.98
2018-04-14T01:00:38.447Z,93.88
2018-04-14T01:01:38.442Z,94.07
2018-04-14T01:02:38.182Z,93.7
2018-04-14T01:03:38.428Z,94.07
2018-04-14T01:04:38.438Z,93.88
2018-04-14T01:05:38.431Z,93.88
2018-04-14T01:06:38.415Z,93.88
2018-04-14T01:07:38.452Z,93.79
2018-04-14T01:08:38.397Z,93.7
2018-04-14T01:09:38.390Z,93.51
2018-04-14T01:10:38.129Z,93.98
2018-04-14T01:11:38.377Z,94.07
2018-04-14T01:12:38.375Z,94.17
2018-04-14T01:13:38.361Z,94.07
2018-04-14T01:14:38.367Z,94.07
2018-04-14T01:15:38.094Z,93.98
2018-04-14T01:16:38.340Z,94.17
2018-04-14T01:17:38.332Z,94.17
2018-04-14T01:18:38.325Z,93.88
2018-04-14T01:19:38.318Z,93.79
2018-04-14T01:20:38.312Z,93.98
2018-04-14T01:21:38.305Z,93.98
2018-04-14T01:22:38.310Z,93.98
2018-04-14T01:23:38.298Z,93.98
2018-04-14T01:24:38.284Z,93.88
2018-04-14T01:25:38.280Z,94.17
2018-04-14T01:26:38.270Z,94.07
2018-04-14T01:27:38.264Z,94.27
2018-04-14T01:28:38.005Z,94.17
2018-04-14T01:29:38.249Z,93.88
2018-04-14T01:30:38.252Z,93.98
2018-04-14T01:31:38.238Z,93.98
2018-04-14T01:32:38.246Z,93.98
2018-04-14T01:33:37.978Z,93.98
2018-04-14T01:34:38.215Z,93.88
2018-04-14T01:35:38.207Z,94.46
2018-04-14T01:36:37.949Z,93.79
2018-04-14T01:37:38.195Z,94.36
2018-04-14T01:38:37.942Z,94.36
2018-04-14T01:39:38.192Z,94.17
2018-04-14T01:40:38.177Z,94.36
2018-04-14T01:41:38.170Z,94.46
2018-04-14T01:42:38.158Z,94.36
2018-04-14T01:43:38.161Z,94.36
2018-04-14T01:44:38.144Z,94.46
2018-04-14T01:45:38.137Z,94.32
2018-04-14T01:46:38.131Z,94.56
2018-04-14T01:47:38.125Z,94.46
2018-04-14T01:48:38.119Z,94.46
2018-04-14T01:49:38.112Z,93.88
2018-04-14T01:50:37.854Z,94.17
2018-04-14T01:51:37.842Z,94.17
2018-04-14T01:52:38.090Z,94.03
2018-04-14T01:53:38.082Z,93.98
2018-04-14T01:54:38.074Z,94.27
2018-04-14T01:55:37.814Z,93.93
2018-04-14T01:56:38.060Z,94.12
2018-04-14T01:57:38.053Z,94.03
2018-04-14T01:58:38.045Z,94.17
2018-04-14T01:59:38.039Z,94.17
2018-04-14T02:00:38.031Z,94.36
2018-04-14T02:01:38.028Z,94.46
2018-04-14T02:02:38.017Z,93.98
2018-04-14T02:03:38.010Z,94.12
2018-04-14T02:04:38.054Z,93.98
2018-04-14T02:05:38.011Z,93.98
2018-04-14T02:06:37.988Z,93.93
2018-04-14T02:07:37.981Z,94.65
2018-04-14T02:08:37.975Z,94.22
2018-04-14T02:09:37.969Z,93.98
2018-04-14T02:10:37.959Z,94.17
2018-04-14T02:11:37.952Z,94.46
2018-04-14T02:12:37.947Z,94.07
2018-04-14T02:13:37.939Z,94.36
2018-04-14T02:14:37.931Z,93.98
2018-04-14T02:15:37.926Z,94.27
2018-04-14T02:16:37.917Z,93.93
2018-04-14T02:17:37.916Z,94.46
2018-04-14T02:18:37.912Z,94.65
2018-04-14T02:19:37.896Z,94.27
2018-04-14T02:20:37.889Z,94.65
2018-04-14T02:21:37.881Z,94.46
2018-04-14T02:22:37.874Z,94.56
2018-04-14T02:23:37.869Z,94.27
2018-04-14T02:24:37.608Z,94.36
2018-04-14T02:25:37.852Z,94.65
2018-04-14T02:26:37.855Z,94.46
2018-04-14T02:27:37.840Z,94.36
2018-04-14T02:28:37.833Z,94.56
2018-04-14T02:29:37.824Z,94.36
2018-04-14T02:30:37.828Z,94.27
2018-04-14T02:31:37.561Z,94.36
2018-04-14T02:32:37.555Z,94.56
2018-04-14T02:33:37.797Z,94.56
2018-04-14T02:34:37.801Z,94.56
2018-04-14T02:35:37.793Z,94.36
2018-04-14T02:36:37.775Z,94.46
2018-04-14T02:37:37.769Z,94.46
2018-04-14T02:38:37.762Z,94.46
2018-04-14T02:39:37.760Z,94.46
2018-04-14T02:40:37.748Z,94.56
2018-04-14T02:41:37.488Z,94.56
2018-04-14T02:42:37.739Z,94.65
2018-04-14T02:43:37.729Z,94.36
2018-04-14T02:44:37.728Z,94.56
2018-04-14T02:45:37.460Z,94.65
2018-04-14T02:46:37.709Z,94.46
2018-04-14T02:47:37.722Z,94.36
2018-04-14T02:48:37.692Z,94.56
2018-04-14T02:49:37.717Z,94.65
2018-04-14T02:50:37.681Z,94.46
2018-04-14T02:51:37.677Z,94.27
2018-04-14T02:52:37.665Z,94.46
2018-04-14T02:53:37.657Z,94.36
2018-04-14T02:54:37.397Z,94.27
2018-04-14T02:55:37.648Z,94.36
2018-04-14T02:56:37.384Z,94.36
2018-04-14T02:57:37.633Z,94.36
2018-04-14T02:58:37.369Z,94.36
2018-04-14T02:59:37.363Z,94.46
2018-04-14T03:00:37.609Z,94.56
2018-04-14T03:01:37.348Z,94.46
2018-04-14T03:02:37.342Z,94.36
2018-04-14T03:03:37.335Z,94.36
2018-04-14T03:04:37.583Z,94.46
2018-04-14T03:05:37.573Z,94.56
2018-04-14T03:06:37.314Z,94.65
2018-04-14T03:07:37.306Z,94.56
2018-04-14T03:08:37.300Z,94.36
2018-04-14T03:09:37.584Z,94.36
2018-04-14T03:10:37.542Z,94.46
2018-04-14T03:11:37.551Z,94.65
2018-04-14T03:12:37.271Z,94.17
2018-04-14T03:13:37.276Z,94.56
2018-04-14T03:14:37.512Z,94.46
2018-04-14T03:15:37.251Z,94.17
2018-04-14T03:16:37.245Z,94.27
2018-04-14T03:17:37.497Z,94.27
2018-04-14T03:18:37.231Z,93.98
2018-04-14T03:19:37.222Z,94.07
2018-04-14T03:20:37.221Z,94.36
2018-04-14T03:21:37.466Z,94.07
2018-04-14T03:22:37.209Z,94.17
2018-04-14T03:23:37.456Z,93.98
2018-04-14T03:24:37.188Z,94.22
2018-04-14T03:25:37.440Z,94.12
2018-04-14T03:26:37.429Z,93.98
2018-04-14T03:27:37.171Z,94.27
2018-04-14T03:28:37.417Z,94.51
2018-04-14T03:29:37.155Z,94.46
2018-04-14T03:30:37.408Z,94.46
2018-04-14T03:31:37.142Z,94.27
2018-04-14T03:32:37.394Z,94.51
2018-04-14T03:33:37.128Z,94.12
2018-04-14T03:34:37.132Z,94.36
2018-04-14T03:35:37.114Z,94.6
2018-04-14T03:36:37.363Z,94.51
2018-04-14T03:37:37.370Z,94.51
2018-04-14T03:38:37.093Z,94.03
2018-04-14T03:39:37.345Z,94.12
2018-04-14T03:40:37.334Z,94.22
2018-04-14T03:41:37.353Z,94.51
2018-04-14T03:42:37.319Z,93.98
2018-04-14T03:43:37.313Z,94.6
2018-04-14T03:44:37.308Z,94.31
2018-04-14T03:45:37.046Z,94.03
2018-04-14T03:46:37.305Z,94.51
2018-04-14T03:47:37.033Z,94.31
2018-04-14T03:48:37.283Z,93.93
2018-04-14T03:49:37.276Z,94.22
2018-04-14T03:50:37.267Z,94.22
2018-04-14T03:51:37.006Z,94.36
2018-04-14T03:52:37.254Z,94.22
2018-04-14T03:53:36.992Z,94.12
2018-04-14T03:54:36.987Z,94.46
2018-04-14T03:55:37.232Z,94.51
2018-04-14T03:56:36.972Z,94.51
2018-04-14T03:57:37.222Z,94.51
2018-04-14T03:58:37.216Z,94.6
2018-04-14T03:59:36.951Z,94.65
2018-04-14T04:00:36.946Z,93.98
2018-04-14T04:01:37.190Z,94.07
2018-04-14T04:02:37.183Z,94.56
2018-04-14T04:03:37.183Z,94.65
2018-04-14T04:04:37.182Z,94.65
2018-04-14T04:05:37.164Z,94.46
2018-04-14T04:06:37.156Z,94.36
2018-04-14T04:07:37.149Z,94.56
2018-04-14T04:08:37.143Z,94.27
2018-04-14T04:09:37.135Z,94.17
2018-04-14T04:10:36.879Z,94.36
2018-04-14T04:11:37.125Z,94.36
2018-04-14T04:12:37.117Z,94.56
2018-04-14T04:13:37.109Z,94.17
2018-04-14T04:14:36.854Z,93.98
2018-04-14T04:15:37.151Z,94.27
2018-04-14T04:16:37.089Z,93.98
2018-04-14T04:17:37.085Z,93.98
2018-04-14T04:18:37.075Z,93.98
2018-04-14T04:19:37.073Z,94.27
2018-04-14T04:20:37.062Z,93.98
2018-04-14T04:21:37.061Z,93.98
2018-04-14T04:22:37.044Z,93.98
2018-04-14T04:23:37.040Z,94.27
2018-04-14T04:24:37.032Z,94.07
2018-04-14T04:25:36.774Z,94.17
2018-04-14T04:26:37.017Z,94.07
2018-04-14T04:27:37.009Z,93.98
2018-04-14T04:28:37.002Z,93.98
2018-04-14T04:29:36.996Z,94.07
2018-04-14T04:30:36.993Z,93.93
2018-04-14T04:31:36.983Z,93.93
2018-04-14T04:32:36.982Z,93.98
2018-04-14T04:33:36.969Z,93.88
2018-04-14T04:34:36.978Z,93.79
2018-04-14T04:35:36.957Z,93.98
2018-04-14T04:36:36.946Z,93.93
2018-04-14T04:37:36.939Z,93.79
2018-04-14T04:38:36.936Z,93.79
2018-04-14T04:39:36.672Z,94.03
2018-04-14T04:40:36.920Z,93.88
2018-04-14T04:41:36.910Z,93.98
2018-04-14T04:42:36.904Z,93.98
2018-04-14T04:43:36.903Z,93.98
2018-04-14T04:44:36.893Z,93.84
2018-04-14T04:45:36.896Z,93.7
2018-04-14T04:46:36.928Z,93.79
2018-04-14T04:47:36.867Z,93.98
2018-04-14T04:48:36.865Z,93.98
2018-04-14T04:49:36.855Z,94.07
2018-04-14T04:50:36.846Z,93.74
2018-04-14T04:51:36.843Z,93.98
2018-04-14T04:52:36.580Z,93.84
2018-04-14T04:53:36.826Z,93.79
2018-04-14T04:54:36.824Z,94.17
2018-04-14T04:55:36.814Z,94.27
2018-04-14T04:56:36.803Z,93.79
2018-04-14T04:57:36.796Z,94.17
2018-04-14T04:58:36.840Z,93.79
2018-04-14T04:59:36.529Z,93.88
2018-04-14T05:00:36.524Z,93.7
2018-04-14T05:01:36.770Z,93.98
2018-04-14T05:02:36.770Z,93.79
2018-04-14T05:03:36.769Z,93.98
2018-04-14T05:04:36.750Z,93.98
2018-04-14T05:05:36.738Z,94.17
2018-04-14T05:06:36.736Z,93.98
2018-04-14T05:07:36.725Z,94.17
2018-04-14T05:08:36.718Z,93.98
2018-04-14T05:09:36.715Z,94.17
2018-04-14T05:10:36.703Z,93.98
2018-04-14T05:11:36.700Z,94.07
2018-04-14T05:12:36.692Z,93.79
2018-04-14T05:13:36.681Z,93.79
2018-04-14T05:14:36.676Z,93.79
2018-04-14T05:15:36.672Z,93.98
2018-04-14T05:16:36.660Z,93.98
2018-04-14T05:17:36.656Z,93.98
2018-04-14T05:18:36.648Z,93.88
2018-04-14T05:19:36.647Z,93.79
2018-04-14T05:20:36.633Z,94.17
2018-04-14T05:21:36.627Z,93.6
2018-04-14T05:22:36.620Z,93.6
2018-04-14T05:23:36.623Z,93.79
2018-04-14T05:24:36.611Z,93.6
2018-04-14T05:25:36.604Z,93.7
2018-04-14T05:26:36.590Z,93.79
2018-04-14T05:27:36.583Z,94.07
2018-04-14T05:28:36.580Z,94.17
2018-04-14T05:29:36.573Z,94.17
2018-04-14T05:30:36.562Z,93.51
2018-04-14T05:31:36.301Z,93.7
2018-04-14T05:32:36.547Z,93.7
2018-04-14T05:33:36.542Z,93.7
2018-04-14T05:34:36.533Z,93.98
2018-04-14T05:35:36.526Z,93.88
2018-04-14T05:36:36.519Z,93.84
2018-04-14T05:37:36.605Z,93.88
2018-04-14T05:38:36.504Z,94.07
2018-04-14T05:39:36.497Z,93.98
2018-04-14T05:40:36.241Z,93.79
2018-04-14T05:41:36.484Z,94.12
2018-04-14T05:42:36.482Z,93.79
2018-04-14T05:43:36.471Z,93.98
2018-04-14T05:44:36.461Z,93.7
2018-04-14T05:45:36.455Z,94.07
2018-04-14T05:46:36.448Z,93.98
2018-04-14T05:47:36.444Z,93.88
2018-04-14T05:48:36.182Z,93.46
2018-04-14T05:49:36.432Z,93.98
2018-04-14T05:50:36.419Z,93.6
2018-04-14T05:51:36.162Z,93.7
2018-04-14T05:52:36.409Z,93.31
2018-04-14T05:53:36.400Z,93.22
2018-04-14T05:54:36.395Z,93.12
2018-04-14T05:55:36.385Z,93.22
2018-04-14T05:56:36.378Z,93.22
2018-04-14T05:57:36.374Z,93.22
2018-04-14T05:58:36.369Z,93.12
2018-04-14T05:59:36.357Z,93.51
2018-04-14T06:00:36.352Z,93.51
2018-04-14T06:01:36.349Z,93.51
2018-04-14T06:02:36.337Z,93.79
2018-04-14T06:03:36.329Z,93.51
2018-04-14T06:04:36.068Z,93.41
2018-04-14T06:05:36.322Z,93.7
2018-04-14T06:06:36.316Z,93.79
2018-04-14T06:07:36.303Z,93.88
2018-04-14T06:08:36.297Z,93.31
2018-04-14T06:09:36.287Z,93.41
2018-04-14T06:10:36.289Z,93.12
2018-04-14T06:11:36.274Z,93.31
2018-04-14T06:12:36.267Z,93.12
2018-04-14T06:13:36.260Z,93.12
2018-04-14T06:14:36.252Z,93.12
2018-04-14T06:15:36.245Z,93.26
2018-04-14T06:16:36.239Z,93.26
2018-04-14T06:17:36.232Z,93.46
2018-04-14T06:18:36.229Z,93.36
2018-04-14T06:19:36.222Z,93.07
2018-04-14T06:20:36.217Z,93.26
2018-04-14T06:21:35.954Z,93.17
2018-04-14T06:22:35.947Z,92.88
2018-04-14T06:23:36.237Z,92.79
2018-04-14T06:24:36.201Z,92.69
2018-04-14T06:25:35.927Z,92.6
2018-04-14T06:26:36.175Z,92.69
2018-04-14T06:27:36.166Z,92.93
2018-04-14T06:28:36.170Z,93.02
2018-04-14T06:29:36.152Z,92.74
2018-04-14T06:30:36.148Z,92.74
2018-04-14T06:31:36.143Z,92.83
2018-04-14T06:32:36.220Z,92.83
2018-04-14T06:33:36.131Z,92.74
2018-04-14T06:34:36.128Z,93.02
2018-04-14T06:35:36.123Z,92.97
2018-04-14T06:36:36.109Z,93.26
2018-04-14T06:37:36.106Z,93.16
2018-04-14T06:38:35.846Z,93.36
2018-04-14T06:39:35.844Z,92.88
2018-04-14T06:40:36.089Z,93.07
2018-04-14T06:41:36.092Z,92.88
2018-04-14T06:42:36.075Z,92.83
2018-04-14T06:43:36.070Z,92.83
2018-04-14T06:44:35.812Z,92.74
2018-04-14T06:45:35.807Z,92.93
2018-04-14T06:46:36.057Z,93.12
2018-04-14T06:47:36.053Z,93.07
2018-04-14T06:48:36.047Z,93.07
2018-04-14T06:49:36.043Z,93.16
2018-04-14T06:50:36.035Z,93.07
2018-04-14T06:51:35.776Z,92.97
2018-04-14T06:52:36.034Z,93.07
2018-04-14T06:53:36.027Z,93.16
2018-04-14T06:54:36.014Z,94.21
2018-04-14T06:55:36.010Z,93.07
2018-04-14T06:56:36.004Z,93.35
2018-04-14T06:57:36.005Z,93.64
2018-04-14T06:58:35.993Z,93.45
2018-04-14T06:59:35.989Z,93.84
2018-04-14T07:00:35.990Z,94.02
2018-04-14T07:01:35.981Z,93.64
2018-04-14T07:02:35.982Z,93.26
2018-04-14T07:03:35.722Z,94.02
2018-04-14T07:04:36.041Z,93.98
2018-04-14T07:05:35.970Z,93.6
2018-04-14T07:06:35.954Z,93.31
2018-04-14T07:07:35.951Z,93.21
2018-04-14T07:08:35.693Z,93.21
2018-04-14T07:09:35.942Z,93.21
2018-04-14T07:10:35.938Z,93.69
2018-04-14T07:11:35.935Z,93.88
2018-04-14T07:12:35.941Z,93.6
2018-04-14T07:13:35.918Z,94.55
2018-04-14T07:14:35.912Z,94.26
2018-04-14T07:15:35.919Z,94.26
2018-04-14T07:16:35.903Z,93.88
2018-04-14T07:17:35.896Z,94.07
2018-04-14T07:18:35.639Z,94.46
2018-04-14T07:19:35.888Z,94.6
2018-04-14T07:20:35.977Z,93.26
2018-04-14T07:21:35.882Z,93.69
2018-04-14T07:22:35.617Z,93.4
2018-04-14T07:23:35.866Z,93.98
2018-04-14T07:24:35.609Z,93.69
2018-04-14T07:25:35.856Z,93.6
2018-04-14T07:26:35.597Z,94.02
2018-04-14T07:27:35.593Z,93.84
2018-04-14T07:28:35.840Z,93.74
2018-04-14T07:29:35.836Z,93.55
2018-04-14T07:30:35.834Z,93.26
2018-04-14T07:31:35.829Z,93.45
2018-04-14T07:32:35.820Z,93.64
2018-04-14T07:33:35.815Z,93.55
2018-04-14T07:34:35.817Z,93.16
2018-04-14T07:35:35.553Z,92.63
2018-04-14T07:36:35.805Z,92.83
2018-04-14T07:37:35.875Z,93.21
2018-04-14T07:38:35.792Z,93.12
2018-04-14T07:39:35.789Z,93.02
2018-04-14T07:40:35.528Z,92.63
2018-04-14T07:41:35.782Z,92.87
2018-04-14T07:42:35.520Z,92.68
2018-04-14T07:43:35.769Z,93.21
2018-04-14T07:44:35.766Z,92.35
2018-04-14T07:45:35.763Z,92.39
2018-04-14T07:46:35.757Z,92.2
2018-04-14T07:47:35.752Z,91.48
2018-04-14T07:48:35.749Z,90.81
2018-04-14T07:49:35.495Z,91
2018-04-14T07:50:35.490Z,90.71
2018-04-14T07:51:35.505Z,90.75
2018-04-14T07:52:35.751Z,90.95
2018-04-14T07:53:35.736Z,90.18
2018-04-14T07:54:35.735Z,89.07
2018-04-14T07:55:35.733Z,88.79
2018-04-14T07:56:35.735Z,89.02
2018-04-14T07:57:35.733Z,89.79
2018-04-14T07:58:35.730Z,88.49
2018-04-14T07:59:35.478Z,87.76
2018-04-14T08:00:35.731Z,87.62
2018-04-14T08:01:35.478Z,88.39
2018-04-14T08:02:35.732Z,85.74
2018-04-14T08:03:35.755Z,85.93
2018-04-14T08:04:35.736Z,84.87
2018-04-14T08:05:35.482Z,84.77
2018-04-14T08:06:35.486Z,83.72
2018-04-14T08:07:35.738Z,84.77
2018-04-14T08:08:35.738Z,85.64
2018-04-14T08:09:35.486Z,86.41
2018-04-14T08:10:35.741Z,85.64
2018-04-14T08:11:35.543Z,83.72
2018-04-14T08:12:35.741Z,84.77
2018-04-14T08:13:35.760Z,84.97
2018-04-14T08:14:35.756Z,83.62
2018-04-14T08:15:35.754Z,84.58
2018-04-14T08:16:35.747Z,84
2018-04-14T08:17:35.748Z,84.43
2018-04-14T08:18:35.748Z,83.37
2018-04-14T08:19:35.747Z,83.47
2018-04-14T08:20:35.748Z,82.7
2018-04-14T08:21:35.752Z,83.47
2018-04-14T08:22:35.767Z,84.23
2018-04-14T08:23:35.761Z,84.39
2018-04-14T08:24:35.749Z,85.06
2018-04-14T08:25:35.757Z,84.91
2018-04-14T08:26:35.751Z,84.14
2018-04-14T08:27:35.752Z,83.18
2018-04-14T08:28:35.747Z,83.47
2018-04-14T08:29:35.749Z,83.85
2018-04-14T08:30:35.754Z,84.91
2018-04-14T08:31:35.750Z,85.78
2018-04-14T08:32:35.749Z,85.2
2018-04-14T08:33:35.749Z,85.58
2018-04-14T08:34:35.748Z,83.41
2018-04-14T08:35:35.495Z,82.98
2018-04-14T08:36:35.751Z,81.93
2018-04-14T08:37:35.747Z,83.28
2018-04-14T08:38:35.748Z,82.12
2018-04-14T08:39:35.745Z,83.23
2018-04-14T08:40:35.765Z,84.87
2018-04-14T08:41:35.749Z,84.29
2018-04-14T08:42:35.749Z,83.52
2018-04-14T08:43:35.754Z,84.39
2018-04-14T08:44:35.743Z,83.08
2018-04-14T08:45:35.742Z,83.75
2018-04-14T08:46:35.746Z,84.14
2018-04-14T08:47:35.744Z,84.38
2018-04-14T08:48:35.742Z,84.47
2018-04-14T08:49:35.743Z,83.12
2018-04-14T08:50:35.491Z,83.07
2018-04-14T08:51:35.748Z,81.72
2018-04-14T08:52:35.755Z,81.52
2018-04-14T08:53:35.744Z,80.69
2018-04-14T08:54:35.491Z,79.64
2018-04-14T08:55:35.749Z,81.09
2018-04-14T08:56:35.744Z,82.14
2018-04-14T08:57:35.493Z,81.85
2018-04-14T08:58:35.758Z,79.64
2018-04-14T08:59:35.748Z,80.45
2018-04-14T09:00:35.767Z,80.64
2018-04-14T09:01:35.755Z,79.91
2018-04-14T09:02:35.502Z,78.66
2018-04-14T09:03:35.501Z,79.95
2018-04-14T09:04:35.755Z,79.08
2018-04-14T09:05:35.505Z,76.12
2018-04-14T09:06:35.765Z,76.42
2018-04-14T09:07:35.758Z,76.61
2018-04-14T09:08:35.510Z,76.32
2018-04-14T09:09:35.764Z,74.96
2018-04-14T09:10:35.767Z,75.84
2018-04-14T09:11:35.767Z,77.15
2018-04-14T09:12:35.774Z,78.41
2018-04-14T09:13:35.771Z,77.92
2018-04-14T09:14:35.786Z,77.34
2018-04-14T09:15:35.776Z,78.79
2018-04-14T09:16:35.776Z,76.76
2018-04-14T09:17:35.777Z,76.57
2018-04-14T09:18:35.528Z,74.93
2018-04-14T09:19:35.784Z,77.01
2018-04-14T09:20:35.784Z,78.36
2018-04-14T09:21:35.808Z,78.46
2018-04-14T09:22:35.789Z,77.78
2018-04-14T09:23:35.786Z,77.21
2018-04-14T09:24:35.799Z,76.34
2018-04-14T09:25:35.793Z,75.76
2018-04-14T09:26:35.799Z,73.63
2018-04-14T09:27:35.801Z,74.21
2018-04-14T09:28:35.797Z,75.18
2018-04-14T09:29:35.794Z,74.99
2018-04-14T09:30:35.797Z,75.57
2018-04-14T09:31:35.800Z,74.12
2018-04-14T09:32:35.808Z,73.25
2018-04-14T09:33:35.809Z,75.18
2018-04-14T09:34:35.808Z,75.47
2018-04-14T09:35:35.811Z,75.24
2018-04-14T09:36:35.809Z,76.2
2018-04-14T09:37:35.810Z,73.93
2018-04-14T09:38:35.811Z,72.25
2018-04-14T09:39:35.812Z,71.86
2018-04-14T09:40:35.814Z,73.02
2018-04-14T09:41:35.816Z,74.95
2018-04-14T09:42:35.842Z,74.76
2018-04-14T09:43:35.816Z,73.99
2018-04-14T09:44:35.821Z,73.99
2018-04-14T09:45:35.823Z,76.2
2018-04-14T09:46:35.825Z,74.47
2018-04-14T09:47:35.823Z,72.54
2018-04-14T09:48:35.831Z,72.54
2018-04-14T09:49:35.828Z,71.09
2018-04-14T09:50:35.825Z,71.77
2018-04-14T09:51:35.831Z,71.64
2018-04-14T09:52:35.848Z,71.15
2018-04-14T09:53:35.830Z,70.96
2018-04-14T09:54:35.833Z,71.92
2018-04-14T09:55:35.577Z,73.57
2018-04-14T09:56:35.839Z,72.41
2018-04-14T09:57:35.831Z,71.73
2018-04-14T09:58:35.840Z,72.02
2018-04-14T09:59:35.845Z,71.92
2018-04-14T10:00:35.836Z,71.34
2018-04-14T10:01:35.838Z,71.73
2018-04-14T10:02:35.844Z,69.51
2018-04-14T10:03:35.856Z,70.86
2018-04-14T10:04:35.836Z,70.38
2018-04-14T10:05:35.840Z,70.09
2018-04-14T10:06:35.839Z,70.42
2018-04-14T10:07:35.849Z,68.68
2018-04-14T10:08:35.855Z,69.64
2018-04-14T10:09:35.841Z,68.39
2018-04-14T10:10:35.979Z,68.52
2018-04-14T10:11:35.845Z,67.62
2018-04-14T10:12:35.855Z,68.23
2018-04-14T10:13:35.858Z,67.75
2018-04-14T10:14:35.852Z,67.36
2018-04-14T10:15:35.594Z,68.04
2018-04-14T10:16:35.848Z,69.1
2018-04-14T10:17:35.856Z,67.88
2018-04-14T10:18:35.852Z,67.78
2018-04-14T10:19:35.851Z,68.07
2018-04-14T10:20:35.860Z,66.36
2018-04-14T10:21:35.867Z,64.63
2018-04-14T10:22:35.863Z,63.85
2018-04-14T10:23:35.858Z,63.76
2018-04-14T10:24:35.861Z,65.24
2018-04-14T10:25:35.862Z,65.78
2018-04-14T10:26:35.865Z,64.85
2018-04-14T10:27:35.887Z,63.4
2018-04-14T10:28:35.868Z,63.02
2018-04-14T10:29:35.869Z,62.44
2018-04-14T10:30:35.872Z,62.92
2018-04-14T10:31:35.875Z,62.05
2018-04-14T10:32:35.881Z,62.53
2018-04-14T10:33:35.888Z,63.02
2018-04-14T10:34:35.886Z,61.27
2018-04-14T10:35:35.889Z,61.79
2018-04-14T10:36:35.898Z,62.27
2018-04-14T10:37:35.892Z,61.89
2018-04-14T10:38:35.891Z,62.56
2018-04-14T10:39:35.898Z,61.98
2018-04-14T10:40:35.904Z,63.14
2018-04-14T10:41:35.647Z,60.66
2018-04-14T10:42:35.908Z,59.59
2018-04-14T10:43:35.907Z,60.47
2018-04-14T10:44:35.654Z,59.11
2018-04-14T10:45:35.925Z,59.59
2018-04-14T10:46:35.919Z,59.11
2018-04-14T10:47:35.921Z,58.82
2018-04-14T10:48:35.918Z,58.53
2018-04-14T10:49:35.924Z,59.31
2018-04-14T10:50:35.931Z,58.89
2018-04-14T10:51:35.928Z,59.31
2018-04-14T10:52:35.932Z,57.92
2018-04-14T10:53:35.934Z,58.5
2018-04-14T10:54:35.935Z,58.02
2018-04-14T10:55:35.945Z,58.31
2018-04-14T10:56:35.687Z,58.8
2018-04-14T10:57:35.942Z,59.95
2018-04-14T10:58:35.946Z,60.24
2018-04-14T10:59:35.998Z,59.95
2018-04-14T11:00:35.953Z,58.31
2018-04-14T11:01:35.966Z,57.34
2018-04-14T11:02:35.963Z,57.54
2018-04-14T11:03:35.959Z,57.34
2018-04-14T11:04:35.962Z,56.95
2018-04-14T11:05:35.970Z,57.15
2018-04-14T11:06:35.980Z,56.93
2018-04-14T11:07:35.985Z,57.03
2018-04-14T11:08:35.979Z,57.6
2018-04-14T11:09:35.977Z,57.41
2018-04-14T11:10:35.724Z,57.87
2018-04-14T11:11:35.975Z,57.67
2018-04-14T11:12:35.979Z,58.35
2018-04-14T11:13:35.984Z,59.12
2018-04-14T11:14:35.986Z,59.77
2018-04-14T11:15:35.996Z,59.38
2018-04-14T11:16:35.991Z,59.38
2018-04-14T11:17:35.987Z,59.96
2018-04-14T11:18:35.735Z,59.48
2018-04-14T11:19:36.006Z,59.38
2018-04-14T11:20:35.826Z,58.61
2018-04-14T11:21:35.992Z,59.48
2018-04-14T11:22:35.996Z,58.9
2018-04-14T11:23:35.996Z,58.61
2018-04-14T11:24:35.745Z,59.89
2018-04-14T11:25:35.999Z,60.28
2018-04-14T11:26:36.012Z,59.99
2018-04-14T11:28:36.005Z,59.02
2018-04-14T11:29:36.005Z,58.45
2018-04-14T11:30:36.011Z,58.45
2018-04-14T11:31:36.011Z,58.73
2018-04-14T11:32:36.065Z,58.54
2018-04-14T11:33:35.766Z,58.67
2018-04-14T11:34:36.042Z,57.6
2018-04-14T11:35:36.018Z,57.63
2018-04-14T11:36:36.017Z,57.44
2018-04-14T11:37:36.024Z,57.15
2018-04-14T11:38:36.028Z,56.67
2018-04-14T11:39:36.023Z,56.57
2018-04-14T11:40:36.025Z,57.41
2018-04-14T11:41:36.027Z,58.28
2018-04-14T11:42:36.056Z,58.18
2018-04-14T11:43:36.034Z,57.89
2018-04-14T11:44:36.038Z,57.89
2018-04-14T11:45:36.034Z,58.35
2018-04-14T11:46:36.038Z,58.64
2018-04-14T11:47:36.051Z,58.93
2018-04-14T11:48:36.045Z,59.12
2018-04-14T11:49:35.787Z,59.89
2018-04-14T11:50:36.050Z,59.51
2018-04-14T11:51:36.046Z,59.89
2018-04-14T11:52:36.054Z,59.89
2018-04-14T11:53:36.053Z,59.99
2018-04-14T11:54:36.053Z,59.31
2018-04-14T11:55:36.048Z,58.15
2018-04-14T11:56:36.050Z,58.15
2018-04-14T11:57:36.051Z,58.45
2018-04-14T11:58:35.801Z,58.15
2018-04-14T11:59:36.062Z,57.29
2018-04-14T12:00:35.805Z,57.77
2018-04-14T12:01:36.065Z,58.15
2018-04-14T12:02:36.059Z,56.9
2018-04-14T12:03:36.075Z,56.99
2018-04-14T12:04:36.064Z,57.67
2018-04-14T12:05:36.062Z,56.99
2018-04-14T12:06:36.070Z,56.99
2018-04-14T12:07:35.815Z,56.99
2018-04-14T12:08:36.074Z,57.57
2018-04-14T12:09:35.816Z,57.77
2018-04-14T12:10:36.071Z,56.99
2018-04-14T12:11:36.072Z,57.29
2018-04-14T12:12:36.074Z,56.83
2018-04-14T12:13:36.076Z,56.9
2018-04-14T12:14:36.076Z,57.67
2018-04-14T12:15:35.826Z,57.96
2018-04-14T12:16:36.082Z,58.25
2018-04-14T12:17:35.828Z,57.77
2018-04-14T12:18:36.090Z,58.06
2018-04-14T12:19:36.119Z,58.25
2018-04-14T12:20:36.084Z,57.48
2018-04-14T12:21:36.087Z,56.93
2018-04-14T12:22:36.153Z,56.41
2018-04-14T12:23:36.097Z,56.35
2018-04-14T12:24:36.098Z,56.25
2018-04-14T12:25:36.104Z,56.99
2018-04-14T12:26:36.094Z,56.41
2018-04-14T12:27:36.112Z,55.65
2018-04-14T12:28:36.096Z,55.81
2018-04-14T12:29:36.119Z,56.58
2018-04-14T12:30:36.100Z,56.77
2018-04-14T12:31:35.849Z,57.06
2018-04-14T12:32:36.100Z,56.96
2018-04-14T12:33:36.105Z,57.35
2018-04-14T12:34:36.165Z,57.64
2018-04-14T12:35:36.110Z,57.84
2018-04-14T12:36:36.108Z,58.03
2018-04-14T12:37:36.114Z,57.26
2018-04-14T12:38:36.115Z,57.26
2018-04-14T12:39:35.858Z,57.84
2018-04-14T12:40:36.133Z,58.22
2018-04-14T12:41:36.114Z,58.51
2018-04-14T12:42:35.864Z,58.97
2018-04-14T12:43:36.122Z,59.64
2018-04-14T12:44:36.121Z,60.13
2018-04-14T12:45:36.117Z,59.45
2018-04-14T12:46:36.118Z,60.41
2018-04-14T12:47:36.122Z,60.77
2018-04-14T12:48:36.131Z,59.8
2018-04-14T12:49:36.127Z,60.77
2018-04-14T12:50:36.123Z,60.26
2018-04-14T12:51:36.119Z,60.26
2018-04-14T12:52:36.118Z,61.03
2018-04-14T12:53:36.126Z,61.13
2018-04-14T12:54:36.167Z,61.1
2018-04-14T12:55:36.120Z,60.9